sensor_id;sensor_type;location;lat;lon;timestamp;temperature;humidity
11474;DHT22;5793;52.238;13.438;2024-03-23T00:55:19;7.90;99.90
11474;DHT22;5793;52.238;13.438;2024-03-23T00:57:45;7.90;99.90
11474;DHT22;5793;52.238;13.438;2024-03-23T01:00:13;7.90;99.90
11474;DHT22;5793;52.238;13.438;2024-03-23T01:02:39;7.80;99.90
11474;DHT22;5793;52.238;13.438;2024-03-23T01:05:06;7.80;99.90
11474;DHT22;5793;52.238;13.438;2024-03-23T01:07:32;7.80;99.90
11474;DHT22;5793;52.238;13.438;2024-03-23T01:09:58;7.70;99.90
11474;DHT22;5793;52.238;13.438;2024-03-23T01:12:25;7.80;99.90
11474;DHT22;5793;52.238;13.438;2024-03-23T01:14:52;7.80;99.90
11474;DHT22;5793;52.238;13.438;2024-03-23T01:17:18;7.80;99.90
11474;DHT22;5793;52.238;13.438;2024-03-23T01:19:45;7.80;99.90
11474;DHT22;5793;52.238;13.438;2024-03-23T01:22:11;7.90;99.90
11474;DHT22;5793;52.238;13.438;2024-03-23T01:24:38;7.80;99.90
11474;DHT22;5793;52.238;13.438;2024-03-23T01:27:04;7.90;99.90
11474;DHT22;5793;52.238;13.438;2024-03-23T01:29:32;7.80;99.90
11474;DHT22;5793;52.238;13.438;2024-03-23T01:31:58;7.70;99.90
11474;DHT22;5793;52.238;13.438;2024-03-23T01:34:25;7.60;99.90
11474;DHT22;5793;52.238;13.438;2024-03-23T01:36:51;7.50;99.90
11474;DHT22;5793;52.238;13.438;2024-03-23T01:39:18;7.50;99.90
11474;DHT22;5793;52.238;13.438;2024-03-23T01:41:43;7.50;99.90
11474;DHT22;5793;52.238;13.438;2024-03-23T01:44:10;7.50;99.90
11474;DHT22;5793;52.238;13.438;2024-03-23T01:46:38;7.50;99.90
11474;DHT22;5793;52.238;13.438;2024-03-23T01:49:07;7.50;99.90
11474;DHT22;5793;52.238;13.438;2024-03-23T01:51:34;7.50;99.90
11474;DHT22;5793;52.238;13.438;2024-03-23T01:54:02;7.50;99.90
11474;DHT22;5793;52.238;13.438;2024-03-23T01:56:29;7.50;99.90
11474;DHT22;5793;52.238;13.438;2024-03-23T01:58:56;7.50;99.90
11474;DHT22;5793;52.238;13.438;2024-03-23T02:01:22;7.50;99.90
11474;DHT22;5793;52.238;13.438;2024-03-23T02:03:50;7.40;99.90
11474;DHT22;5793;52.238;13.438;2024-03-23T02:06:16;7.50;99.90
11474;DHT22;5793;52.238;13.438;2024-03-23T02:08:44;7.50;99.90
11474;DHT22;5793;52.238;13.438;2024-03-23T02:11:10;7.60;99.90
11474;DHT22;5793;52.238;13.438;2024-03-23T02:13:37;7.70;99.90
11474;DHT22;5793;52.238;13.438;2024-03-23T02:16:05;7.70;99.90
11474;DHT22;5793;52.238;13.438;2024-03-23T02:18:31;7.70;99.90
11474;DHT22;5793;52.238;13.438;2024-03-23T02:20:59;7.70;99.90
11474;DHT22;5793;52.238;13.438;2024-03-23T02:23:27;7.60;99.90
11474;DHT22;5793;52.238;13.438;2024-03-23T02:25:53;7.60;99.90
11474;DHT22;5793;52.238;13.438;2024-03-23T02:28:20;7.60;99.90
11474;DHT22;5793;52.238;13.438;2024-03-23T02:30:46;7.70;99.90
11474;DHT22;5793;52.238;13.438;2024-03-23T02:33:12;7.70;99.90
11474;DHT22;5793;52.238;13.438;2024-03-23T02:35:38;7.70;99.90
11474;DHT22;5793;52.238;13.438;2024-03-23T02:38:05;7.60;99.90
11474;DHT22;5793;52.238;13.438;2024-03-23T02:40:32;7.50;99.90
11474;DHT22;5793;52.238;13.438;2024-03-23T02:42:59;7.50;99.90
11474;DHT22;5793;52.238;13.438;2024-03-23T02:45:25;7.50;99.90
11474;DHT22;5793;52.238;13.438;2024-03-23T02:47:52;7.60;99.90
11474;DHT22;5793;52.238;13.438;2024-03-23T02:50:18;7.50;99.90
11474;DHT22;5793;52.238;13.438;2024-03-23T02:52:45;7.50;99.90
11474;DHT22;5793;52.238;13.438;2024-03-23T02:55:11;7.50;99.90
11474;DHT22;5793;52.238;13.438;2024-03-23T02:57:39;7.50;99.90
11474;DHT22;5793;52.238;13.438;2024-03-23T03:00:06;7.50;99.90
11474;DHT22;5793;52.238;13.438;2024-03-23T03:02:34;7.50;99.90
11474;DHT22;5793;52.238;13.438;2024-03-23T03:04:59;7.50;99.90
11474;DHT22;5793;52.238;13.438;2024-03-23T03:07:26;7.50;99.90
11474;DHT22;5793;52.238;13.438;2024-03-23T03:09:52;7.50;99.90
11474;DHT22;5793;52.238;13.438;2024-03-23T03:12:19;7.50;99.90
11474;DHT22;5793;52.238;13.438;2024-03-23T03:14:46;7.50;99.90
11474;DHT22;5793;52.238;13.438;2024-03-23T03:17:13;7.60;99.90
11474;DHT22;5793;52.238;13.438;2024-03-23T03:19:40;7.50;99.90
11474;DHT22;5793;52.238;13.438;2024-03-23T03:22:07;7.50;99.90
11474;DHT22;5793;52.238;13.438;2024-03-23T03:24:33;7.40;99.90
11474;DHT22;5793;52.238;13.438;2024-03-23T03:26:59;7.40;99.90
11474;DHT22;5793;52.238;13.438;2024-03-23T03:29:25;7.30;99.90
11474;DHT22;5793;52.238;13.438;2024-03-23T03:32:01;7.30;99.90
11474;DHT22;5793;52.238;13.438;2024-03-23T03:34:27;7.30;99.90
11474;DHT22;5793;52.238;13.438;2024-03-23T03:36:54;7.30;99.90
11474;DHT22;5793;52.238;13.438;2024-03-23T03:39:20;7.20;99.90
11474;DHT22;5793;52.238;13.438;2024-03-23T03:41:48;7.20;99.90
11474;DHT22;5793;52.238;13.438;2024-03-23T03:44:14;7.20;99.90
11474;DHT22;5793;52.238;13.438;2024-03-23T03:46:40;7.30;99.90
11474;DHT22;5793;52.238;13.438;2024-03-23T03:49:08;7.30;99.90
11474;DHT22;5793;52.238;13.438;2024-03-23T03:51:35;7.30;99.90
11474;DHT22;5793;52.238;13.438;2024-03-23T03:54:01;7.30;99.90
11474;DHT22;5793;52.238;13.438;2024-03-23T03:56:28;7.30;99.90
11474;DHT22;5793;52.238;13.438;2024-03-23T03:58:53;7.40;99.90
11474;DHT22;5793;52.238;13.438;2024-03-23T04:01:20;7.50;99.90
11474;DHT22;5793;52.238;13.438;2024-03-23T04:03:46;7.50;99.90
11474;DHT22;5793;52.238;13.438;2024-03-23T04:06:19;7.50;99.90
11474;DHT22;5793;52.238;13.438;2024-03-23T04:08:45;7.50;99.90
11474;DHT22;5793;52.238;13.438;2024-03-23T04:11:12;7.50;99.90
11474;DHT22;5793;52.238;13.438;2024-03-23T04:13:38;7.50;99.90
11474;DHT22;5793;52.238;13.438;2024-03-23T04:16:07;7.40;99.90
11474;DHT22;5793;52.238;13.438;2024-03-23T04:18:33;7.40;99.90
11474;DHT22;5793;52.238;13.438;2024-03-23T04:20:59;7.40;99.90
11474;DHT22;5793;52.238;13.438;2024-03-23T04:23:27;7.40;99.90
11474;DHT22;5793;52.238;13.438;2024-03-23T04:25:53;7.40;99.90
11474;DHT22;5793;52.238;13.438;2024-03-23T04:28:20;7.40;99.90
11474;DHT22;5793;52.238;13.438;2024-03-23T04:30:47;7.40;99.90
11474;DHT22;5793;52.238;13.438;2024-03-23T04:33:12;7.40;99.90
11474;DHT22;5793;52.238;13.438;2024-03-23T04:35:39;7.30;99.90
11474;DHT22;5793;52.238;13.438;2024-03-23T04:38:05;7.20;99.90
11474;DHT22;5793;52.238;13.438;2024-03-23T04:40:33;7.30;99.90
11474;DHT22;5793;52.238;13.438;2024-03-23T04:43:00;7.30;99.90
11474;DHT22;5793;52.238;13.438;2024-03-23T04:45:27;7.20;99.90
11474;DHT22;5793;52.238;13.438;2024-03-23T04:47:54;7.20;99.90
11474;DHT22;5793;52.238;13.438;2024-03-23T04:50:21;7.20;99.90
11474;DHT22;5793;52.238;13.438;2024-03-23T04:52:46;7.20;99.90
11474;DHT22;5793;52.238;13.438;2024-03-23T04:55:13;7.30;99.90
11474;DHT22;5793;52.238;13.438;2024-03-23T04:57:42;7.30;99.90
11474;DHT22;5793;52.238;13.438;2024-03-23T05:00:09;7.40;99.90
11474;DHT22;5793;52.238;13.438;2024-03-23T05:02:45;7.40;99.90
11474;DHT22;5793;52.238;13.438;2024-03-23T05:05:12;7.30;99.90
11474;DHT22;5793;52.238;13.438;2024-03-23T05:07:38;7.30;99.90
11474;DHT22;5793;52.238;13.438;2024-03-23T05:10:05;7.30;99.90
11474;DHT22;5793;52.238;13.438;2024-03-23T05:12:35;7.40;99.90
11474;DHT22;5793;52.238;13.438;2024-03-23T05:15:04;7.40;99.90
11474;DHT22;5793;52.238;13.438;2024-03-23T05:17:31;7.40;99.90
11474;DHT22;5793;52.238;13.438;2024-03-23T05:19:57;7.30;99.90
11474;DHT22;5793;52.238;13.438;2024-03-23T05:22:23;7.10;99.90
11474;DHT22;5793;52.238;13.438;2024-03-23T05:24:50;7.00;99.90
11474;DHT22;5793;52.238;13.438;2024-03-23T05:27:16;6.90;99.90
11474;DHT22;5793;52.238;13.438;2024-03-23T05:29:43;6.80;99.90
11474;DHT22;5793;52.238;13.438;2024-03-23T05:32:10;6.80;99.90
11474;DHT22;5793;52.238;13.438;2024-03-23T05:34:37;6.70;99.90
11474;DHT22;5793;52.238;13.438;2024-03-23T05:37:03;6.70;99.90
11474;DHT22;5793;52.238;13.438;2024-03-23T05:39:30;6.50;99.90
11474;DHT22;5793;52.238;13.438;2024-03-23T05:41:55;6.40;99.90
11474;DHT22;5793;52.238;13.438;2024-03-23T05:44:22;6.40;99.90
11474;DHT22;5793;52.238;13.438;2024-03-23T05:46:48;6.30;99.90
11474;DHT22;5793;52.238;13.438;2024-03-23T05:49:16;6.30;99.90
11474;DHT22;5793;52.238;13.438;2024-03-23T05:51:42;6.40;99.90
11474;DHT22;5793;52.238;13.438;2024-03-23T05:54:09;6.30;99.90
11474;DHT22;5793;52.238;13.438;2024-03-23T05:56:35;6.30;99.90
11474;DHT22;5793;52.238;13.438;2024-03-23T05:59:02;6.30;99.90
11474;DHT22;5793;52.238;13.438;2024-03-23T06:01:29;6.30;99.90
11474;DHT22;5793;52.238;13.438;2024-03-23T06:03:58;6.30;99.90
11474;DHT22;5793;52.238;13.438;2024-03-23T06:06:25;6.40;99.90
11474;DHT22;5793;52.238;13.438;2024-03-23T06:08:52;6.50;99.90
11474;DHT22;5793;52.238;13.438;2024-03-23T06:11:18;6.50;99.90
11474;DHT22;5793;52.238;13.438;2024-03-23T06:13:44;6.60;99.90
11474;DHT22;5793;52.238;13.438;2024-03-23T06:16:10;6.70;99.90
11474;DHT22;5793;52.238;13.438;2024-03-23T06:18:37;6.80;99.90
11474;DHT22;5793;52.238;13.438;2024-03-23T06:21:03;6.80;99.90
11474;DHT22;5793;52.238;13.438;2024-03-23T06:23:31;6.90;99.90
11474;DHT22;5793;52.238;13.438;2024-03-23T06:25:57;6.90;99.90
11474;DHT22;5793;52.238;13.438;2024-03-23T06:28:24;7.00;99.90
11474;DHT22;5793;52.238;13.438;2024-03-23T06:30:50;7.00;99.90
11474;DHT22;5793;52.238;13.438;2024-03-23T06:33:17;7.00;99.90
11474;DHT22;5793;52.238;13.438;2024-03-23T06:35:43;7.00;99.90
11474;DHT22;5793;52.238;13.438;2024-03-23T06:38:09;6.90;99.90
11474;DHT22;5793;52.238;13.438;2024-03-23T06:40:37;6.90;99.90
11474;DHT22;5793;52.238;13.438;2024-03-23T06:43:04;6.90;99.90
11474;DHT22;5793;52.238;13.438;2024-03-23T06:45:31;6.90;99.90
11474;DHT22;5793;52.238;13.438;2024-03-23T06:47:58;6.90;99.90
11474;DHT22;5793;52.238;13.438;2024-03-23T06:50:23;6.80;99.90
11474;DHT22;5793;52.238;13.438;2024-03-23T06:52:50;6.90;99.90
11474;DHT22;5793;52.238;13.438;2024-03-23T06:55:16;6.80;99.90
11474;DHT22;5793;52.238;13.438;2024-03-23T06:57:44;6.80;99.90
11474;DHT22;5793;52.238;13.438;2024-03-23T07:00:11;6.70;99.90
11474;DHT22;5793;52.238;13.438;2024-03-23T07:02:39;6.70;99.90
11474;DHT22;5793;52.238;13.438;2024-03-23T07:05:05;6.70;99.90
11474;DHT22;5793;52.238;13.438;2024-03-23T07:07:32;6.80;99.90
11474;DHT22;5793;52.238;13.438;2024-03-23T07:09:58;6.80;99.90
11474;DHT22;5793;52.238;13.438;2024-03-23T07:12:25;6.80;99.90
11474;DHT22;5793;52.238;13.438;2024-03-23T07:14:52;6.90;99.90
11474;DHT22;5793;52.238;13.438;2024-03-23T07:17:19;6.90;99.90
11474;DHT22;5793;52.238;13.438;2024-03-23T07:19:46;6.90;99.90
11474;DHT22;5793;52.238;13.438;2024-03-23T07:22:13;6.90;99.90
11474;DHT22;5793;52.238;13.438;2024-03-23T07:24:40;6.90;99.90
11474;DHT22;5793;52.238;13.438;2024-03-23T07:27:07;6.80;99.90
11474;DHT22;5793;52.238;13.438;2024-03-23T07:29:35;6.80;99.90
11474;DHT22;5793;52.238;13.438;2024-03-23T07:32:04;6.70;99.90
11474;DHT22;5793;52.238;13.438;2024-03-23T07:34:30;6.70;99.90
11474;DHT22;5793;52.238;13.438;2024-03-23T07:36:57;6.60;99.90
11474;DHT22;5793;52.238;13.438;2024-03-23T07:39:22;6.60;99.90
11474;DHT22;5793;52.238;13.438;2024-03-23T07:41:50;6.60;99.90
11474;DHT22;5793;52.238;13.438;2024-03-23T07:44:16;6.50;99.90
11474;DHT22;5793;52.238;13.438;2024-03-23T07:46:42;6.50;99.90
11474;DHT22;5793;52.238;13.438;2024-03-23T07:49:11;6.50;99.90
11474;DHT22;5793;52.238;13.438;2024-03-23T07:51:37;6.50;99.90
11474;DHT22;5793;52.238;13.438;2024-03-23T07:54:05;6.40;99.90
11474;DHT22;5793;52.238;13.438;2024-03-23T07:56:32;6.40;99.90
11474;DHT22;5793;52.238;13.438;2024-03-23T07:58:58;6.40;99.90
11474;DHT22;5793;52.238;13.438;2024-03-23T08:01:25;6.30;99.90
11474;DHT22;5793;52.238;13.438;2024-03-23T08:03:50;6.30;99.90
11474;DHT22;5793;52.238;13.438;2024-03-23T08:06:20;6.30;99.90
11474;DHT22;5793;52.238;13.438;2024-03-23T08:08:51;6.20;99.90
11474;DHT22;5793;52.238;13.438;2024-03-23T08:11:25;6.20;99.90
11474;DHT22;5793;52.238;13.438;2024-03-23T08:13:51;6.20;99.90
11474;DHT22;5793;52.238;13.438;2024-03-23T08:16:17;6.10;99.90
11474;DHT22;5793;52.238;13.438;2024-03-23T08:18:44;6.00;99.90
11474;DHT22;5793;52.238;13.438;2024-03-23T08:21:10;6.00;99.90
11474;DHT22;5793;52.238;13.438;2024-03-23T08:23:38;6.00;99.90
11474;DHT22;5793;52.238;13.438;2024-03-23T08:26:05;6.00;99.90
11474;DHT22;5793;52.238;13.438;2024-03-23T08:28:33;5.90;99.90
11474;DHT22;5793;52.238;13.438;2024-03-23T08:31:01;5.90;99.90
11474;DHT22;5793;52.238;13.438;2024-03-23T08:33:28;5.80;99.90
11474;DHT22;5793;52.238;13.438;2024-03-23T08:35:55;5.80;99.90
11474;DHT22;5793;52.238;13.438;2024-03-23T08:38:22;5.80;99.90
11474;DHT22;5793;52.238;13.438;2024-03-23T08:40:56;5.90;99.90
11474;DHT22;5793;52.238;13.438;2024-03-23T08:43:23;6.00;99.90
11474;DHT22;5793;52.238;13.438;2024-03-23T08:45:49;6.00;99.90
11474;DHT22;5793;52.238;13.438;2024-03-23T08:48:16;6.10;99.90
11474;DHT22;5793;52.238;13.438;2024-03-23T08:50:41;6.00;99.90
11474;DHT22;5793;52.238;13.438;2024-03-23T08:53:08;6.10;99.90
11474;DHT22;5793;52.238;13.438;2024-03-23T08:55:34;6.10;99.90
11474;DHT22;5793;52.238;13.438;2024-03-23T08:58:02;6.10;99.90
11474;DHT22;5793;52.238;13.438;2024-03-23T09:00:29;6.20;99.90
11474;DHT22;5793;52.238;13.438;2024-03-23T09:02:57;6.30;99.90
11474;DHT22;5793;52.238;13.438;2024-03-23T09:05:23;6.30;99.90
11474;DHT22;5793;52.238;13.438;2024-03-23T09:07:50;6.30;99.90
11474;DHT22;5793;52.238;13.438;2024-03-23T09:10:16;6.30;99.90
11474;DHT22;5793;52.238;13.438;2024-03-23T09:12:43;6.40;99.90
11474;DHT22;5793;52.238;13.438;2024-03-23T09:15:10;6.30;99.90
11474;DHT22;5793;52.238;13.438;2024-03-23T09:17:37;6.10;99.90
11474;DHT22;5793;52.238;13.438;2024-03-23T09:20:04;6.10;99.90
11474;DHT22;5793;52.238;13.438;2024-03-23T09:22:31;5.90;99.90
11474;DHT22;5793;52.238;13.438;2024-03-23T09:24:56;5.80;99.90
11474;DHT22;5793;52.238;13.438;2024-03-23T09:27:23;5.70;99.90
11474;DHT22;5793;52.238;13.438;2024-03-23T09:29:49;5.50;99.90
11474;DHT22;5793;52.238;13.438;2024-03-23T09:32:17;5.50;99.90
11474;DHT22;5793;52.238;13.438;2024-03-23T09:34:43;5.30;99.90
11474;DHT22;5793;52.238;13.438;2024-03-23T09:37:10;5.30;99.90
11474;DHT22;5793;52.238;13.438;2024-03-23T09:39:36;5.30;99.90
11474;DHT22;5793;52.238;13.438;2024-03-23T09:42:04;5.30;99.90
11474;DHT22;5793;52.238;13.438;2024-03-23T09:44:30;5.20;99.90
11474;DHT22;5793;52.238;13.438;2024-03-23T09:46:57;5.10;99.90
11474;DHT22;5793;52.238;13.438;2024-03-23T09:49:24;5.10;99.90
11474;DHT22;5793;52.238;13.438;2024-03-23T09:51:51;4.90;99.90
11474;DHT22;5793;52.238;13.438;2024-03-23T09:54:17;4.90;99.90
11474;DHT22;5793;52.238;13.438;2024-03-23T09:56:43;4.80;99.90
11474;DHT22;5793;52.238;13.438;2024-03-23T09:59:09;4.70;99.90
11474;DHT22;5793;52.238;13.438;2024-03-23T10:01:36;4.70;99.90
11474;DHT22;5793;52.238;13.438;2024-03-23T10:04:03;4.50;99.90
11474;DHT22;5793;52.238;13.438;2024-03-23T10:06:31;4.50;99.90
11474;DHT22;5793;52.238;13.438;2024-03-23T10:08:57;4.50;99.90
11474;DHT22;5793;52.238;13.438;2024-03-23T10:11:23;4.40;99.90
11474;DHT22;5793;52.238;13.438;2024-03-23T10:13:51;4.40;99.90
11474;DHT22;5793;52.238;13.438;2024-03-23T10:16:22;4.40;99.90
11474;DHT22;5793;52.238;13.438;2024-03-23T10:18:48;4.50;99.90
11474;DHT22;5793;52.238;13.438;2024-03-23T10:21:16;4.60;99.90
11474;DHT22;5793;52.238;13.438;2024-03-23T10:23:44;4.60;99.90
11474;DHT22;5793;52.238;13.438;2024-03-23T10:26:17;4.60;99.90
11474;DHT22;5793;52.238;13.438;2024-03-23T10:28:57;4.70;99.90
11474;DHT22;5793;52.238;13.438;2024-03-23T10:31:26;4.70;99.90
11474;DHT22;5793;52.238;13.438;2024-03-23T10:33:52;4.50;99.90
11474;DHT22;5793;52.238;13.438;2024-03-23T10:36:20;4.50;99.90
11474;DHT22;5793;52.238;13.438;2024-03-23T10:38:50;4.60;99.90
11474;DHT22;5793;52.238;13.438;2024-03-23T10:41:17;4.60;99.90
11474;DHT22;5793;52.238;13.438;2024-03-23T10:43:45;4.60;99.90
11474;DHT22;5793;52.238;13.438;2024-03-23T10:46:12;4.60;99.90
11474;DHT22;5793;52.238;13.438;2024-03-23T10:48:38;4.70;99.90
11474;DHT22;5793;52.238;13.438;2024-03-23T10:51:07;4.70;99.90
11474;DHT22;5793;52.238;13.438;2024-03-23T10:53:34;4.60;99.90
11474;DHT22;5793;52.238;13.438;2024-03-23T10:56:04;4.70;99.90
11474;DHT22;5793;52.238;13.438;2024-03-23T10:58:32;4.70;99.90
11474;DHT22;5793;52.238;13.438;2024-03-23T11:00:59;4.80;99.90
11474;DHT22;5793;52.238;13.438;2024-03-23T11:03:36;4.90;99.90
11474;DHT22;5793;52.238;13.438;2024-03-23T11:06:03;4.90;99.90
11474;DHT22;5793;52.238;13.438;2024-03-23T11:08:30;5.00;99.90
11474;DHT22;5793;52.238;13.438;2024-03-23T11:11:16;5.30;99.90
11474;DHT22;5793;52.238;13.438;2024-03-23T11:13:42;5.40;99.90
11474;DHT22;5793;52.238;13.438;2024-03-23T11:16:14;5.50;99.90
11474;DHT22;5793;52.238;13.438;2024-03-23T11:18:40;5.40;99.90
11474;DHT22;5793;52.238;13.438;2024-03-23T11:21:07;5.40;99.90
11474;DHT22;5793;52.238;13.438;2024-03-23T11:23:33;5.50;99.90
11474;DHT22;5793;52.238;13.438;2024-03-23T11:26:00;5.40;99.90
11474;DHT22;5793;52.238;13.438;2024-03-23T11:28:27;5.30;99.90
11474;DHT22;5793;52.238;13.438;2024-03-23T11:30:54;5.20;99.90
11474;DHT22;5793;52.238;13.438;2024-03-23T11:33:20;5.10;99.90
11474;DHT22;5793;52.238;13.438;2024-03-23T11:35:47;5.10;99.90
11474;DHT22;5793;52.238;13.438;2024-03-23T11:38:14;5.10;99.90
11474;DHT22;5793;52.238;13.438;2024-03-23T11:40:42;5.20;99.90
11474;DHT22;5793;52.238;13.438;2024-03-23T11:43:10;5.20;99.90
11474;DHT22;5793;52.238;13.438;2024-03-23T11:45:40;5.10;99.90
11474;DHT22;5793;52.238;13.438;2024-03-23T11:48:08;5.20;99.90
11474;DHT22;5793;52.238;13.438;2024-03-23T11:50:38;5.30;99.90
11474;DHT22;5793;52.238;13.438;2024-03-23T11:53:16;5.40;99.90
11474;DHT22;5793;52.238;13.438;2024-03-23T11:55:47;5.70;99.90
11474;DHT22;5793;52.238;13.438;2024-03-23T11:58:15;5.70;99.90
11474;DHT22;5793;52.238;13.438;2024-03-23T12:00:49;5.70;99.90
11474;DHT22;5793;52.238;13.438;2024-03-23T12:03:16;5.80;99.90
11474;DHT22;5793;52.238;13.438;2024-03-23T12:05:48;5.90;99.90
11474;DHT22;5793;52.238;13.438;2024-03-23T12:08:16;5.80;99.90
11474;DHT22;5793;52.238;13.438;2024-03-23T12:10:44;5.80;99.90
11474;DHT22;5793;52.238;13.438;2024-03-23T12:13:11;5.70;99.90
11474;DHT22;5793;52.238;13.438;2024-03-23T12:15:38;5.80;99.90
11474;DHT22;5793;52.238;13.438;2024-03-23T12:18:08;5.90;99.90
11474;DHT22;5793;52.238;13.438;2024-03-23T12:20:36;6.10;99.90
11474;DHT22;5793;52.238;13.438;2024-03-23T12:23:10;6.10;99.90
11474;DHT22;5793;52.238;13.438;2024-03-23T12:25:37;6.40;99.90
11474;DHT22;5793;52.238;13.438;2024-03-23T12:28:04;6.40;99.90
11474;DHT22;5793;52.238;13.438;2024-03-23T12:30:33;6.40;99.90
11474;DHT22;5793;52.238;13.438;2024-03-23T12:32:59;6.30;99.90
11474;DHT22;5793;52.238;13.438;2024-03-23T12:35:27;6.30;99.90
11474;DHT22;5793;52.238;13.438;2024-03-23T12:37:53;6.30;99.90
11474;DHT22;5793;52.238;13.438;2024-03-23T12:40:20;6.30;99.90
11474;DHT22;5793;52.238;13.438;2024-03-23T12:42:46;6.30;99.90
11474;DHT22;5793;52.238;13.438;2024-03-23T12:45:13;6.30;99.90
11474;DHT22;5793;52.238;13.438;2024-03-23T12:47:39;6.40;99.90
11474;DHT22;5793;52.238;13.438;2024-03-23T12:50:06;6.50;99.90
11474;DHT22;5793;52.238;13.438;2024-03-23T12:52:34;6.50;99.90
11474;DHT22;5793;52.238;13.438;2024-03-23T12:55:00;6.70;99.90
11474;DHT22;5793;52.238;13.438;2024-03-23T12:57:26;6.90;99.90
11474;DHT22;5793;52.238;13.438;2024-03-23T12:59:53;7.00;99.90
11474;DHT22;5793;52.238;13.438;2024-03-23T13:02:19;7.10;99.90
11474;DHT22;5793;52.238;13.438;2024-03-23T13:04:49;7.10;99.90
11474;DHT22;5793;52.238;13.438;2024-03-23T13:07:15;7.00;99.90
11474;DHT22;5793;52.238;13.438;2024-03-23T13:09:43;7.20;99.90
11474;DHT22;5793;52.238;13.438;2024-03-23T13:12:10;7.50;99.90
11474;DHT22;5793;52.238;13.438;2024-03-23T13:14:37;7.60;99.90
11474;DHT22;5793;52.238;13.438;2024-03-23T13:17:03;7.60;99.90
11474;DHT22;5793;52.238;13.438;2024-03-23T13:19:30;7.50;99.90
11474;DHT22;5793;52.238;13.438;2024-03-23T13:21:57;7.20;99.90
11474;DHT22;5793;52.238;13.438;2024-03-23T13:24:24;7.10;99.90
11474;DHT22;5793;52.238;13.438;2024-03-23T13:26:52;7.00;99.90
11474;DHT22;5793;52.238;13.438;2024-03-23T13:29:19;7.00;99.90
11474;DHT22;5793;52.238;13.438;2024-03-23T13:31:46;7.10;99.90
11474;DHT22;5793;52.238;13.438;2024-03-23T13:34:13;7.50;99.90
11474;DHT22;5793;52.238;13.438;2024-03-23T13:36:40;8.00;99.90
11474;DHT22;5793;52.238;13.438;2024-03-23T13:39:07;7.90;99.90
11474;DHT22;5793;52.238;13.438;2024-03-23T13:41:38;8.00;99.90
11474;DHT22;5793;52.238;13.438;2024-03-23T13:44:07;8.00;99.90
11474;DHT22;5793;52.238;13.438;2024-03-23T13:46:33;7.90;99.90
11474;DHT22;5793;52.238;13.438;2024-03-23T13:49:00;7.90;99.90
11474;DHT22;5793;52.238;13.438;2024-03-23T13:51:26;7.90;99.90
11474;DHT22;5793;52.238;13.438;2024-03-23T13:53:53;7.80;99.90
11474;DHT22;5793;52.238;13.438;2024-03-23T13:56:20;7.80;99.90
11474;DHT22;5793;52.238;13.438;2024-03-23T13:58:47;7.80;99.90
11474;DHT22;5793;52.238;13.438;2024-03-23T14:01:15;7.90;99.90
11474;DHT22;5793;52.238;13.438;2024-03-23T14:03:42;7.90;99.90
11474;DHT22;5793;52.238;13.438;2024-03-23T14:06:09;8.00;99.90
11474;DHT22;5793;52.238;13.438;2024-03-23T14:08:36;8.10;99.90
11474;DHT22;5793;52.238;13.438;2024-03-23T14:11:05;8.30;99.90
11474;DHT22;5793;52.238;13.438;2024-03-23T14:13:32;8.40;99.90
11474;DHT22;5793;52.238;13.438;2024-03-23T14:15:58;8.30;99.90
11474;DHT22;5793;52.238;13.438;2024-03-23T14:18:26;8.10;99.90
11474;DHT22;5793;52.238;13.438;2024-03-23T14:20:56;8.10;99.90
11474;DHT22;5793;52.238;13.438;2024-03-23T14:23:24;8.10;99.90
11474;DHT22;5793;52.238;13.438;2024-03-23T14:25:53;8.10;99.90
11474;DHT22;5793;52.238;13.438;2024-03-23T14:28:19;8.40;99.90
11474;DHT22;5793;52.238;13.438;2024-03-23T14:30:45;8.60;99.90
11474;DHT22;5793;52.238;13.438;2024-03-23T14:33:12;8.70;99.90
11474;DHT22;5793;52.238;13.438;2024-03-23T14:35:40;8.80;99.90
11474;DHT22;5793;52.238;13.438;2024-03-23T14:38:06;8.80;99.90
11474;DHT22;5793;52.238;13.438;2024-03-23T14:40:33;8.80;99.90
11474;DHT22;5793;52.238;13.438;2024-03-23T14:43:00;8.90;99.90
11474;DHT22;5793;52.238;13.438;2024-03-23T14:45:26;8.60;99.90
11474;DHT22;5793;52.238;13.438;2024-03-23T14:47:53;8.70;99.90
11474;DHT22;5793;52.238;13.438;2024-03-23T14:50:19;8.70;99.90
11474;DHT22;5793;52.238;13.438;2024-03-23T14:52:48;8.70;99.90
11474;DHT22;5793;52.238;13.438;2024-03-23T14:55:14;8.70;99.90
11474;DHT22;5793;52.238;13.438;2024-03-23T14:57:42;8.50;99.90
11474;DHT22;5793;52.238;13.438;2024-03-23T15:00:11;8.30;99.90
11474;DHT22;5793;52.238;13.438;2024-03-23T15:02:38;8.30;99.90
11474;DHT22;5793;52.238;13.438;2024-03-23T15:05:05;8.20;99.90
11474;DHT22;5793;52.238;13.438;2024-03-23T15:07:34;8.20;99.90
11474;DHT22;5793;52.238;13.438;2024-03-23T15:10:03;7.70;99.90
11474;DHT22;5793;52.238;13.438;2024-03-23T15:12:30;7.10;99.90
11474;DHT22;5793;52.238;13.438;2024-03-23T15:14:58;6.70;99.90
11474;DHT22;5793;52.238;13.438;2024-03-23T15:17:24;6.50;99.90
11474;DHT22;5793;52.238;13.438;2024-03-23T15:19:51;6.40;99.90
11474;DHT22;5793;52.238;13.438;2024-03-23T15:22:18;6.40;99.90
11474;DHT22;5793;52.238;13.438;2024-03-23T15:24:46;6.30;99.90
11474;DHT22;5793;52.238;13.438;2024-03-23T15:27:14;6.10;99.90
11474;DHT22;5793;52.238;13.438;2024-03-23T15:29:40;6.10;99.90
11474;DHT22;5793;52.238;13.438;2024-03-23T15:32:11;6.20;99.90
11474;DHT22;5793;52.238;13.438;2024-03-23T15:34:39;6.30;99.90
11474;DHT22;5793;52.238;13.438;2024-03-23T15:37:05;6.30;99.90
11474;DHT22;5793;52.238;13.438;2024-03-23T15:39:32;6.20;99.90
11474;DHT22;5793;52.238;13.438;2024-03-23T15:41:58;6.10;99.90
11474;DHT22;5793;52.238;13.438;2024-03-23T15:44:26;6.00;99.90
11474;DHT22;5793;52.238;13.438;2024-03-23T15:46:52;5.90;99.90
11474;DHT22;5793;52.238;13.438;2024-03-23T15:49:19;5.80;99.90
11474;DHT22;5793;52.238;13.438;2024-03-23T15:51:45;5.80;99.90
11474;DHT22;5793;52.238;13.438;2024-03-23T15:54:12;5.70;99.90
11474;DHT22;5793;52.238;13.438;2024-03-23T15:56:37;5.70;99.90
11474;DHT22;5793;52.238;13.438;2024-03-23T15:59:05;5.80;99.90
11474;DHT22;5793;52.238;13.438;2024-03-23T16:01:33;5.90;99.90
11474;DHT22;5793;52.238;13.438;2024-03-23T16:04:01;6.10;99.90
11474;DHT22;5793;52.238;13.438;2024-03-23T16:06:27;6.30;99.90
11474;DHT22;5793;52.238;13.438;2024-03-23T16:08:54;6.50;99.90
11474;DHT22;5793;52.238;13.438;2024-03-23T16:11:20;6.60;99.90
11474;DHT22;5793;52.238;13.438;2024-03-23T16:13:47;6.60;99.90
11474;DHT22;5793;52.238;13.438;2024-03-23T16:16:14;6.60;99.90
11474;DHT22;5793;52.238;13.438;2024-03-23T16:18:43;6.50;99.90
11474;DHT22;5793;52.238;13.438;2024-03-23T16:21:10;6.50;99.90
11474;DHT22;5793;52.238;13.438;2024-03-23T16:23:37;6.50;99.90
11474;DHT22;5793;52.238;13.438;2024-03-23T16:26:03;6.40;99.90
11474;DHT22;5793;52.238;13.438;2024-03-23T16:28:32;6.40;99.90
11474;DHT22;5793;52.238;13.438;2024-03-23T16:30:59;6.40;99.90
11474;DHT22;5793;52.238;13.438;2024-03-23T16:33:27;6.40;99.90
11474;DHT22;5793;52.238;13.438;2024-03-23T16:36:02;6.40;99.90
11474;DHT22;5793;52.238;13.438;2024-03-23T16:38:31;6.40;99.90